Time;durP1;ratioP1;P1;durP2;ratioP2;P2;SDS_P1;SDS_P2;PMS_P1;PMS_P2;Temp;Humidity;BMP_temperature;BMP_pressure;BME280_temperature;BME280_humidity;BME280_pressure;Samples;Min_cycle;Max_cycle;Signal;HPM_P1;HPM_P2
2022/03/11 00:00:46;;;;;;;2.53;0.80;;;;;;;;;;5004484;28;20049;-58
2022/03/11 00:03:13;;;;;;;1.88;0.70;;;;;;;;;;5003006;28;20038;-57
2022/03/11 00:05:39;;;;;;;3.40;1.00;;;;;;;;;;4996558;28;20139;-58
2022/03/11 00:08:05;;;;;;;4.45;1.33;;;;;;;;;;5001020;28;20053;-57
2022/03/11 00:10:32;;;;;;;10.15;1.50;;;;;;;;;;4999426;28;20050;-58
2022/03/11 00:12:57;;;;;;;3.42;0.90;;;;;;;;;;4999652;28;20042;-58
2022/03/11 00:15:24;;;;;;;3.08;0.93;;;;;;;;;;4999007;28;20034;-57
2022/03/11 00:17:50;;;;;;;4.57;1.60;;;;;;;;;;5001154;28;20034;-59
2022/03/11 00:20:19;;;;;;;3.22;1.15;;;;;;;;;;4998338;28;20045;-58
2022/03/11 00:22:46;;;;;;;5.53;1.50;;;;;;;;;;5001772;28;20037;-57
2022/03/11 00:25:12;;;;;;;4.57;1.15;;;;;;;;;;5000832;28;20065;-58
2022/03/11 00:27:38;;;;;;;4.32;1.35;;;;;;;;;;4997254;28;20164;-60
2022/03/11 00:30:04;;;;;;;4.40;1.10;;;;;;;;;;4998008;28;20506;-56
2022/03/11 00:32:30;;;;;;;4.32;1.52;;;;;;;;;;4999877;28;20045;-59
2022/03/11 00:34:56;;;;;;;3.58;1.00;;;;;;;;;;4998413;28;20610;-57
2022/03/11 00:37:22;;;;;;;2.55;0.93;;;;;;;;;;5000799;28;20506;-57
2022/03/11 00:39:48;;;;;;;3.58;0.80;;;;;;;;;;4999378;28;20042;-57
2022/03/11 00:42:14;;;;;;;5.85;1.38;;;;;;;;;;4995023;28;20404;-58
2022/03/11 00:44:40;;;;;;;2.42;0.80;;;;;;;;;;4998462;28;20560;-58
2022/03/11 00:47:07;;;;;;;5.72;1.00;;;;;;;;;;4999430;28;20049;-57
2022/03/11 00:49:33;;;;;;;10.02;1.20;;;;;;;;;;4998868;28;20480;-57
2022/03/11 00:51:59;;;;;;;6.60;1.20;;;;;;;;;;5006910;28;20045;-56
2022/03/11 00:54:25;;;;;;;9.60;1.38;;;;;;;;;;4997041;28;20038;-56
2022/03/11 00:56:51;;;;;;;3.88;1.20;;;;;;;;;;5000697;28;20127;-57
2022/03/11 00:59:17;;;;;;;3.05;0.90;;;;;;;;;;5006110;28;20053;-57
2022/03/11 01:01:43;;;;;;;3.80;1.08;;;;;;;;;;5004436;28;20085;-58
2022/03/11 01:04:09;;;;;;;12.50;1.30;;;;;;;;;;4991568;28;20045;-58
2022/03/11 01:06:35;;;;;;;7.38;1.10;;;;;;;;;;4999427;28;20060;-59
2022/03/11 01:09:02;;;;;;;3.78;1.52;;;;;;;;;;4998410;28;20066;-56
2022/03/11 01:11:27;;;;;;;3.42;1.00;;;;;;;;;;5006652;28;20092;-56
2022/03/11 01:13:53;;;;;;;4.63;1.13;;;;;;;;;;4999263;28;20513;-58
2022/03/11 01:16:19;;;;;;;4.65;1.23;;;;;;;;;;5000604;28;20045;-58
2022/03/11 01:18:45;;;;;;;6.28;1.50;;;;;;;;;;4999641;28;20561;-60
2022/03/11 01:21:12;;;;;;;5.63;1.20;;;;;;;;;;4997611;28;20065;-57
2022/03/11 01:23:37;;;;;;;5.90;1.92;;;;;;;;;;4998918;28;20487;-55
2022/03/11 01:26:03;;;;;;;3.13;1.23;;;;;;;;;;5000638;28;20100;-56
2022/03/11 01:28:29;;;;;;;6.10;1.50;;;;;;;;;;4997720;28;20076;-56
2022/03/11 01:30:55;;;;;;;3.95;1.58;;;;;;;;;;4998642;28;20041;-56
2022/03/11 01:33:22;;;;;;;5.72;1.15;;;;;;;;;;4996767;28;20520;-55
2022/03/11 01:35:48;;;;;;;11.00;1.83;;;;;;;;;;5000212;28;20042;-56
2022/03/11 01:38:14;;;;;;;3.75;1.33;;;;;;;;;;5001753;28;20045;-56
2022/03/11 01:40:40;;;;;;;2.35;1.02;;;;;;;;;;5002229;28;20060;-56
2022/03/11 01:43:15;;;;;;;8.95;2.10;;;;;;;;;;5004383;28;20038;-57
2022/03/11 01:45:41;;;;;;;7.63;2.10;;;;;;;;;;5000090;28;20376;-56
2022/03/11 01:48:09;;;;;;;6.90;1.58;;;;;;;;;;5003352;28;20182;-55
2022/03/11 01:50:35;;;;;;;2.38;0.82;;;;;;;;;;5001872;28;20041;-56
2022/03/11 01:53:01;;;;;;;3.92;1.02;;;;;;;;;;5045779;28;20104;-57
2022/03/11 01:55:27;;;;;;;3.08;1.10;;;;;;;;;;5000744;28;20136;-56
2022/03/11 01:57:53;;;;;;;1.73;0.85;;;;;;;;;;5001298;28;20046;-56
2022/03/11 02:00:19;;;;;;;4.95;1.48;;;;;;;;;;4995959;28;20114;-54
2022/03/11 02:02:45;;;;;;;3.90;1.58;;;;;;;;;;4998080;28;20068;-55
2022/03/11 02:05:14;;;;;;;3.58;1.20;;;;;;;;;;4997262;28;20182;-56
2022/03/11 02:07:40;;;;;;;10.43;1.80;;;;;;;;;;4995264;28;20160;-53
2022/03/11 02:10:06;;;;;;;3.92;1.40;;;;;;;;;;4996040;28;20042;-54
2022/03/11 02:12:34;;;;;;;4.95;1.67;;;;;;;;;;4995661;28;20411;-55
2022/03/11 02:15:04;;;;;;;3.92;1.33;;;;;;;;;;4998174;28;20051;-56
2022/03/11 02:17:30;;;;;;;15.07;1.75;;;;;;;;;;4999273;28;20145;-57
2022/03/11 02:19:56;;;;;;;2.25;0.95;;;;;;;;;;4997600;28;20572;-53
2022/03/11 02:22:23;;;;;;;4.35;1.30;;;;;;;;;;4998538;28;20060;-55
2022/03/11 02:24:49;;;;;;;3.58;1.10;;;;;;;;;;4997028;28;20049;-54
2022/03/11 02:27:15;;;;;;;4.20;1.45;;;;;;;;;;4997395;28;20046;-56
2022/03/11 02:29:41;;;;;;;9.10;1.58;;;;;;;;;;4998433;28;20039;-53
2022/03/11 02:32:10;;;;;;;3.25;1.15;;;;;;;;;;4998951;28;20514;-55
2022/03/11 02:34:40;;;;;;;4.18;1.35;;;;;;;;;;4997476;28;20053;-53
2022/03/11 02:37:06;;;;;;;23.73;1.85;;;;;;;;;;4998639;28;20050;-54
2022/03/11 02:39:35;;;;;;;5.10;2.08;;;;;;;;;;5003674;28;20038;-57
2022/03/11 02:42:03;;;;;;;2.90;1.15;;;;;;;;;;4999155;28;20103;-56
2022/03/11 02:44:31;;;;;;;13.80;1.55;;;;;;;;;;4994309;28;20070;-56
2022/03/11 02:46:59;;;;;;;3.08;1.17;;;;;;;;;;4997454;28;20050;-52
2022/03/11 02:49:26;;;;;;;3.70;1.38;;;;;;;;;;4996604;28;20050;-54
2022/03/11 02:52:12;;;;;;;5.65;1.60;;;;;;;;;;5032867;28;20064;-57
2022/03/11 02:54:38;;;;;;;2.85;1.33;;;;;;;;;;5040214;28;22740;-57
2022/03/11 02:57:04;;;;;;;4.25;1.52;;;;;;;;;;5033574;28;20045;-56
2022/03/11 02:59:30;;;;;;;8.18;2.15;;;;;;;;;;5041064;28;20051;-56
2022/03/11 03:01:56;;;;;;;13.05;1.20;;;;;;;;;;5032285;28;20045;-55
2022/03/11 03:04:22;;;;;;;3.85;1.20;;;;;;;;;;5025951;28;20859;-56
2022/03/11 03:06:48;;;;;;;6.22;1.15;;;;;;;;;;5035157;28;20041;-56
2022/03/11 03:09:14;;;;;;;3.20;1.35;;;;;;;;;;5036642;28;20063;-56
2022/03/11 03:11:39;;;;;;;2.85;0.95;;;;;;;;;;5033566;28;20057;-54
2022/03/11 03:14:06;;;;;;;4.07;1.35;;;;;;;;;;5033075;28;20507;-56
2022/03/11 03:16:31;;;;;;;2.75;1.10;;;;;;;;;;5033285;28;20056;-58
2022/03/11 03:19:00;;;;;;;12.55;1.23;;;;;;;;;;5034978;28;20045;-54
2022/03/11 03:21:27;;;;;;;5.68;1.15;;;;;;;;;;5037666;28;20064;-57
2022/03/11 03:23:53;;;;;;;4.15;1.10;;;;;;;;;;5038429;28;20055;-57
2022/03/11 03:26:19;;;;;;;4.93;1.40;;;;;;;;;;5035768;28;20037;-57
2022/03/11 03:28:45;;;;;;;2.30;0.90;;;;;;;;;;5034268;28;20529;-56
2022/03/11 03:31:11;;;;;;;4.40;1.73;;;;;;;;;;5014358;28;20041;-53
2022/03/11 03:33:37;;;;;;;7.43;1.65;;;;;;;;;;5020159;28;20030;-55
2022/03/11 03:36:03;;;;;;;3.75;1.65;;;;;;;;;;5006506;28;20096;-60
2022/03/11 03:38:29;;;;;;;5.03;1.67;;;;;;;;;;5004096;28;20038;-55
2022/03/11 03:40:54;;;;;;;2.88;1.42;;;;;;;;;;5009922;28;20050;-53
2022/03/11 03:43:20;;;;;;;4.03;1.70;;;;;;;;;;5005713;28;20091;-57
2022/03/11 03:45:46;;;;;;;7.07;2.13;;;;;;;;;;5005577;28;20088;-55
2022/03/11 03:48:12;;;;;;;4.95;1.60;;;;;;;;;;5001852;28;20058;-56
2022/03/11 03:50:38;;;;;;;3.38;1.42;;;;;;;;;;5002093;28;20041;-56
2022/03/11 03:53:04;;;;;;;4.60;1.63;;;;;;;;;;5002380;28;20046;-56
2022/03/11 03:55:30;;;;;;;2.80;1.20;;;;;;;;;;5001546;28;20033;-55
2022/03/11 03:57:55;;;;;;;3.58;1.35;;;;;;;;;;5007116;28;20046;-56
2022/03/11 04:00:22;;;;;;;5.93;1.38;;;;;;;;;;5009181;28;20112;-55
2022/03/11 04:02:49;;;;;;;7.78;1.48;;;;;;;;;;5007998;28;20038;-56
2022/03/11 04:05:15;;;;;;;6.53;1.65;;;;;;;;;;5005582;28;20065;-54
2022/03/11 04:07:42;;;;;;;4.97;1.40;;;;;;;;;;5000732;28;20038;-57
2022/03/11 04:10:09;;;;;;;5.00;1.80;;;;;;;;;;5000843;28;20044;-56
2022/03/11 04:12:34;;;;;;;3.10;1.85;;;;;;;;;;5003177;28;20056;-57
2022/03/11 04:15:00;;;;;;;2.10;1.00;;;;;;;;;;5014014;28;20132;-57
2022/03/11 04:17:27;;;;;;;3.40;1.00;;;;;;;;;;5014522;28;20045;-55
2022/03/11 04:19:53;;;;;;;5.55;1.70;;;;;;;;;;5006863;28;20041;-56
2022/03/11 04:22:19;;;;;;;2.03;0.80;;;;;;;;;;5007940;28;20057;-57
2022/03/11 04:24:46;;;;;;;6.38;1.23;;;;;;;;;;5011250;28;20071;-57
2022/03/11 04:27:12;;;;;;;3.60;1.30;;;;;;;;;;5020510;28;20054;-54
2022/03/11 04:29:38;;;;;;;4.30;1.65;;;;;;;;;;5010019;28;20042;-56
2022/03/11 04:32:05;;;;;;;9.52;1.70;;;;;;;;;;5011973;28;20042;-55
2022/03/11 04:34:31;;;;;;;1.95;0.85;;;;;;;;;;5013855;28;20038;-55
2022/03/11 04:36:57;;;;;;;3.25;1.25;;;;;;;;;;5010801;28;20030;-57
2022/03/11 04:39:26;;;;;;;10.20;1.80;;;;;;;;;;5025533;28;20048;-57
2022/03/11 04:41:53;;;;;;;3.58;1.35;;;;;;;;;;5010951;28;20049;-56
2022/03/11 04:44:19;;;;;;;1.88;0.85;;;;;;;;;;5004350;28;20514;-53
2022/03/11 04:46:45;;;;;;;2.92;1.00;;;;;;;;;;5003362;28;20041;-53
2022/03/11 04:49:11;;;;;;;14.20;1.42;;;;;;;;;;5001271;28;20109;-54
2022/03/11 04:51:38;;;;;;;8.93;1.40;;;;;;;;;;5006203;28;20123;-53
2022/03/11 04:54:06;;;;;;;3.25;1.58;;;;;;;;;;5000929;28;20048;-53
2022/03/11 04:56:32;;;;;;;3.90;1.13;;;;;;;;;;5000333;28;20042;-55
2022/03/11 04:58:58;;;;;;;4.72;1.35;;;;;;;;;;4998476;28;20034;-54
2022/03/11 05:01:24;;;;;;;4.55;1.30;;;;;;;;;;4998457;28;20091;-54
2022/03/11 05:03:50;;;;;;;1.48;0.70;;;;;;;;;;4998562;28;20429;-52
2022/03/11 05:06:16;;;;;;;1.77;0.75;;;;;;;;;;4998239;28;20038;-56
2022/03/11 05:08:42;;;;;;;6.32;1.38;;;;;;;;;;5000283;28;20060;-56
2022/03/11 05:11:08;;;;;;;1.90;0.90;;;;;;;;;;4998591;28;20074;-56
2022/03/11 05:13:34;;;;;;;5.47;1.55;;;;;;;;;;4998529;28;20129;-56
2022/03/11 05:16:00;;;;;;;3.97;1.13;;;;;;;;;;5002619;28;20038;-55
2022/03/11 05:18:26;;;;;;;2.05;1.00;;;;;;;;;;4998265;28;20046;-51
2022/03/11 05:20:52;;;;;;;7.82;1.05;;;;;;;;;;4998166;28;20429;-52
2022/03/11 05:23:18;;;;;;;1.67;0.88;;;;;;;;;;5000981;28;20491;-54
2022/03/11 05:25:44;;;;;;;3.03;1.42;;;;;;;;;;5001418;28;20065;-56
2022/03/11 05:28:10;;;;;;;2.13;1.05;;;;;;;;;;5003091;28;20463;-56
2022/03/11 05:30:36;;;;;;;1.48;0.80;;;;;;;;;;5012226;28;20030;-54
2022/03/11 05:33:03;;;;;;;2.63;1.38;;;;;;;;;;5002903;28;20042;-55
2022/03/11 05:35:29;;;;;;;1.55;0.80;;;;;;;;;;4997583;28;20073;-54
2022/03/11 05:37:55;;;;;;;2.25;1.15;;;;;;;;;;5001806;28;20117;-56
2022/03/11 05:40:20;;;;;;;1.58;0.82;;;;;;;;;;4996869;28;20743;-53
2022/03/11 05:42:46;;;;;;;4.32;1.83;;;;;;;;;;4996912;28;20045;-53
2022/03/11 05:45:12;;;;;;;3.00;1.20;;;;;;;;;;5001088;28;20128;-53
2022/03/11 05:47:39;;;;;;;3.15;1.05;;;;;;;;;;4998374;28;20047;-56
2022/03/11 05:50:06;;;;;;;4.13;1.30;;;;;;;;;;4995960;28;20080;-55
2022/03/11 05:52:34;;;;;;;1.38;0.85;;;;;;;;;;5004632;28;20038;-55
2022/03/11 05:55:00;;;;;;;1.48;0.77;;;;;;;;;;4998416;28;20037;-55
2022/03/11 05:57:26;;;;;;;1.75;0.93;;;;;;;;;;4997307;28;20049;-54
2022/03/11 05:59:52;;;;;;;1.75;0.75;;;;;;;;;;4999372;28;20073;-53
2022/03/11 06:02:18;;;;;;;0.95;0.73;;;;;;;;;;4997055;28;20137;-55
2022/03/11 06:04:44;;;;;;;8.57;2.25;;;;;;;;;;5014146;28;20457;-53
2022/03/11 06:07:10;;;;;;;6.97;2.20;;;;;;;;;;4995490;28;20073;-55
2022/03/11 06:09:36;;;;;;;13.35;2.45;;;;;;;;;;4995676;28;20091;-53
2022/03/11 06:12:02;;;;;;;1.52;0.90;;;;;;;;;;4996863;28;20073;-53
2022/03/11 06:14:28;;;;;;;4.28;1.40;;;;;;;;;;4998908;28;20084;-52
2022/03/11 06:16:54;;;;;;;3.92;1.58;;;;;;;;;;4998084;28;20388;-55
2022/03/11 06:19:20;;;;;;;1.60;0.73;;;;;;;;;;4997929;28;20056;-54
2022/03/11 06:21:46;;;;;;;2.15;1.13;;;;;;;;;;5001529;28;20049;-55
2022/03/11 06:24:13;;;;;;;1.13;0.70;;;;;;;;;;4999279;28;20042;-53
2022/03/11 06:26:40;;;;;;;1.95;0.82;;;;;;;;;;4997101;28;20042;-54
2022/03/11 06:29:06;;;;;;;2.20;0.82;;;;;;;;;;4996745;28;20050;-56
2022/03/11 06:31:32;;;;;;;2.75;1.17;;;;;;;;;;4994064;28;20052;-52
2022/03/11 06:33:59;;;;;;;1.10;0.50;;;;;;;;;;4997868;28;20030;-55
2022/03/11 06:36:25;;;;;;;3.13;0.80;;;;;;;;;;4998605;28;20248;-55
2022/03/11 06:38:51;;;;;;;0.70;0.50;;;;;;;;;;5012513;28;20045;-53
2022/03/11 06:41:17;;;;;;;1.67;0.82;;;;;;;;;;4997788;28;20054;-56
2022/03/11 06:43:43;;;;;;;4.32;1.08;;;;;;;;;;4997868;28;20088;-55
2022/03/11 06:46:09;;;;;;;1.58;0.70;;;;;;;;;;4996685;28;20049;-54
2022/03/11 06:48:35;;;;;;;17.42;1.50;;;;;;;;;;4988156;28;20269;-57
2022/03/11 06:51:04;;;;;;;1.77;0.90;;;;;;;;;;4996274;28;20046;-56
2022/03/11 06:53:31;;;;;;;2.03;1.05;;;;;;;;;;4997123;28;20621;-56
2022/03/11 06:55:57;;;;;;;2.00;0.90;;;;;;;;;;4999016;28;20036;-53
2022/03/11 06:58:23;;;;;;;1.52;0.88;;;;;;;;;;4998427;28;20037;-56
2022/03/11 07:00:49;;;;;;;2.33;1.35;;;;;;;;;;4996137;28;20057;-54
2022/03/11 07:03:15;;;;;;;2.05;1.10;;;;;;;;;;5002645;28;20037;-55
2022/03/11 07:05:41;;;;;;;3.20;1.05;;;;;;;;;;4995751;28;20045;-52
2022/03/11 07:08:10;;;;;;;1.67;1.30;;;;;;;;;;4995991;28;20034;-55
2022/03/11 07:10:36;;;;;;;4.68;1.20;;;;;;;;;;4995969;28;20076;-56
2022/03/11 07:13:02;;;;;;;1.42;0.70;;;;;;;;;;4997610;28;20554;-52
2022/03/11 07:15:28;;;;;;;3.75;1.05;;;;;;;;;;4996398;28;20050;-54
2022/03/11 07:17:53;;;;;;;1.90;0.90;;;;;;;;;;4997208;28;20132;-56
2022/03/11 07:20:20;;;;;;;1.80;0.88;;;;;;;;;;4996041;28;20444;-54
2022/03/11 07:22:48;;;;;;;1.50;0.95;;;;;;;;;;5004788;28;20508;-52
2022/03/11 07:25:16;;;;;;;1.20;0.65;;;;;;;;;;4996833;28;20049;-55
2022/03/11 07:27:42;;;;;;;2.67;1.15;;;;;;;;;;4996849;28;20037;-52
2022/03/11 07:30:11;;;;;;;9.25;1.40;;;;;;;;;;5001066;28;20080;-55
2022/03/11 07:32:38;;;;;;;1.45;0.65;;;;;;;;;;5004038;28;20037;-54
2022/03/11 07:35:04;;;;;;;3.08;0.95;;;;;;;;;;5002393;28;20114;-55
2022/03/11 07:37:29;;;;;;;2.53;1.33;;;;;;;;;;4998990;28;20100;-54
2022/03/11 07:39:55;;;;;;;1.23;0.68;;;;;;;;;;4998114;28;20041;-56
2022/03/11 07:42:21;;;;;;;3.55;1.38;;;;;;;;;;4998738;28;20117;-52
2022/03/11 07:44:47;;;;;;;2.60;1.25;;;;;;;;;;4998261;28;20133;-53
2022/03/11 07:47:13;;;;;;;2.00;0.95;;;;;;;;;;4999537;28;20050;-52
2022/03/11 07:49:39;;;;;;;1.95;1.08;;;;;;;;;;5013637;28;20057;-54
2022/03/11 07:52:05;;;;;;;15.35;1.00;;;;;;;;;;4997665;28;20069;-54
2022/03/11 07:54:31;;;;;;;5.70;1.20;;;;;;;;;;4998233;28;20060;-52
2022/03/11 07:56:57;;;;;;;4.65;1.30;;;;;;;;;;4997303;28;20428;-56
2022/03/11 07:59:23;;;;;;;2.53;0.98;;;;;;;;;;4992785;28;20436;-55
2022/03/11 08:01:49;;;;;;;1.65;0.77;;;;;;;;;;4996257;28;20688;-55
2022/03/11 08:04:16;;;;;;;2.55;1.23;;;;;;;;;;4997639;28;20062;-54
2022/03/11 08:06:43;;;;;;;9.52;1.85;;;;;;;;;;4996515;28;20126;-54
2022/03/11 08:09:09;;;;;;;2.33;1.25;;;;;;;;;;5000199;28;20450;-53
2022/03/11 08:11:36;;;;;;;2.85;1.40;;;;;;;;;;4999176;28;20055;-56
2022/03/11 08:14:02;;;;;;;1.80;0.98;;;;;;;;;;4999546;28;20059;-54
2022/03/11 08:16:27;;;;;;;1.95;1.20;;;;;;;;;;4999016;28;20038;-55
2022/03/11 08:18:53;;;;;;;3.97;1.20;;;;;;;;;;5002242;28;20401;-53
2022/03/11 08:21:20;;;;;;;1.27;0.82;;;;;;;;;;5002923;28;20046;-54
2022/03/11 08:23:45;;;;;;;2.50;1.23;;;;;;;;;;5019414;28;20084;-55
2022/03/11 08:26:12;;;;;;;2.50;1.30;;;;;;;;;;5015646;28;20078;-56
2022/03/11 08:28:38;;;;;;;1.60;0.85;;;;;;;;;;5006471;28;20042;-53
2022/03/11 08:31:05;;;;;;;1.17;0.52;;;;;;;;;;5000354;28;20041;-54
2022/03/11 08:33:32;;;;;;;2.20;1.02;;;;;;;;;;4999951;28;20088;-53
2022/03/11 08:35:58;;;;;;;3.95;1.15;;;;;;;;;;5000221;28;20042;-55
2022/03/11 08:38:24;;;;;;;1.85;0.90;;;;;;;;;;4998047;28;20091;-55
2022/03/11 08:40:50;;;;;;;15.52;1.80;;;;;;;;;;5002033;28;20061;-55
2022/03/11 08:43:16;;;;;;;1.58;0.73;;;;;;;;;;5001090;28;20395;-55
2022/03/11 08:45:43;;;;;;;2.60;1.30;;;;;;;;;;5000297;28;20076;-54
2022/03/11 08:48:08;;;;;;;0.32;0.30;;;;;;;;;;5001824;28;20160;-54
2022/03/11 08:50:34;;;;;;;0.68;0.55;;;;;;;;;;5002221;28;20123;-52
2022/03/11 08:53:00;;;;;;;2.22;1.15;;;;;;;;;;5000255;28;20038;-56
2022/03/11 08:55:26;;;;;;;2.53;0.90;;;;;;;;;;5001948;28;20151;-53
2022/03/11 08:57:52;;;;;;;0.82;0.68;;;;;;;;;;4999630;28;20387;-56
2022/03/11 09:00:20;;;;;;;2.20;1.15;;;;;;;;;;4997522;28;20432;-56
2022/03/11 09:02:45;;;;;;;0.70;0.65;;;;;;;;;;5000163;28;20057;-58
2022/03/11 09:05:13;;;;;;;1.05;0.70;;;;;;;;;;4999465;28;20038;-54
2022/03/11 09:07:39;;;;;;;4.13;0.88;;;;;;;;;;5000002;28;20065;-55
2022/03/11 09:10:06;;;;;;;4.95;1.45;;;;;;;;;;5000987;28;20042;-54
2022/03/11 09:12:32;;;;;;;1.35;0.85;;;;;;;;;;5000882;28;20072;-55
2022/03/11 09:14:58;;;;;;;5.93;1.15;;;;;;;;;;5001562;28;20083;-55
2022/03/11 09:17:24;;;;;;;0.73;0.50;;;;;;;;;;5000144;28;20045;-54
2022/03/11 09:19:50;;;;;;;0.80;0.47;;;;;;;;;;5000656;28;20061;-56
2022/03/11 09:22:17;;;;;;;2.95;0.95;;;;;;;;;;5001518;28;20573;-55
2022/03/11 09:24:44;;;;;;;0.43;0.30;;;;;;;;;;4999728;28;20544;-53
2022/03/11 09:27:11;;;;;;;1.08;0.75;;;;;;;;;;5001063;28;20065;-54
2022/03/11 09:29:38;;;;;;;0.75;0.60;;;;;;;;;;4999539;28;20107;-52
2022/03/11 09:32:04;;;;;;;0.77;0.50;;;;;;;;;;5003862;28;20101;-53
2022/03/11 09:34:30;;;;;;;0.40;0.38;;;;;;;;;;4999806;28;20046;-52
2022/03/11 09:36:57;;;;;;;1.98;0.85;;;;;;;;;;5000755;28;20038;-53
2022/03/11 09:39:23;;;;;;;1.50;0.68;;;;;;;;;;4999081;28;20185;-54
2022/03/11 09:41:50;;;;;;;1.73;0.80;;;;;;;;;;4998845;28;20037;-53
2022/03/11 09:44:16;;;;;;;1.25;0.82;;;;;;;;;;4999953;28;20037;-52
2022/03/11 09:46:42;;;;;;;3.00;1.00;;;;;;;;;;5000240;28;20100;-53
2022/03/11 09:49:09;;;;;;;2.75;0.80;;;;;;;;;;5029591;28;20034;-55
2022/03/11 09:51:35;;;;;;;2.33;0.95;;;;;;;;;;4996520;28;20066;-52
2022/03/11 09:54:01;;;;;;;3.83;1.40;;;;;;;;;;5001252;28;20145;-54
2022/03/11 09:56:27;;;;;;;1.52;0.75;;;;;;;;;;4998048;28;20041;-52
2022/03/11 09:58:56;;;;;;;1.27;0.88;;;;;;;;;;4998588;28;20042;-52
2022/03/11 10:01:22;;;;;;;3.45;1.45;;;;;;;;;;4996445;28;20049;-53
2022/03/11 10:03:48;;;;;;;0.95;0.65;;;;;;;;;;4998293;28;20457;-54
2022/03/11 10:06:14;;;;;;;0.80;0.57;;;;;;;;;;4997186;28;20152;-55
2022/03/11 10:08:42;;;;;;;1.77;1.05;;;;;;;;;;5028077;28;20046;-53
2022/03/11 10:11:17;;;;;;;9.60;1.08;;;;;;;;;;4996146;28;20054;-53
2022/03/11 10:13:43;;;;;;;3.42;0.82;;;;;;;;;;4998072;28;20087;-54
2022/03/11 10:16:20;;;;;;;1.13;0.65;;;;;;;;;;4998394;28;20213;-54
2022/03/11 10:19:22;;;;;;;2.30;1.08;;;;;;;;;;4997025;28;20076;-53
2022/03/11 10:21:50;;;;;;;2.67;1.20;;;;;;;;;;4953454;28;20055;-54
2022/03/11 10:24:20;;;;;;;0.90;0.63;;;;;;;;;;4988096;28;20120;-54
2022/03/11 10:26:49;;;;;;;3.22;0.98;;;;;;;;;;4999802;28;20052;-54
2022/03/11 10:29:17;;;;;;;1.80;1.02;;;;;;;;;;5010632;28;20631;-54
2022/03/11 10:31:45;;;;;;;0.90;0.63;;;;;;;;;;4997194;28;20085;-54
2022/03/11 10:34:26;;;;;;;2.60;0.95;;;;;;;;;;4999306;28;20049;-56
2022/03/11 10:36:55;;;;;;;1.15;0.63;;;;;;;;;;4998326;28;20038;-55
2022/03/11 10:39:23;;;;;;;1.67;0.90;;;;;;;;;;4997560;28;20781;-51
2022/03/11 10:41:50;;;;;;;1.90;1.25;;;;;;;;;;4997841;28;20057;-51
2022/03/11 10:44:25;;;;;;;1.88;0.82;;;;;;;;;;4996863;28;20133;-55
2022/03/11 10:46:52;;;;;;;2.58;1.33;;;;;;;;;;4997947;28;20465;-55
2022/03/11 10:49:25;;;;;;;2.75;1.35;;;;;;;;;;4997001;28;20765;-54
2022/03/11 10:51:52;;;;;;;1.92;1.10;;;;;;;;;;4996053;28;20041;-52
2022/03/11 10:54:17;;;;;;;1.85;0.93;;;;;;;;;;4995725;28;20483;-56
2022/03/11 10:56:44;;;;;;;1.65;0.85;;;;;;;;;;4997300;28;20045;-55
2022/03/11 10:59:14;;;;;;;1.38;0.77;;;;;;;;;;5000153;28;20041;-54
2022/03/11 11:01:42;;;;;;;1.17;0.80;;;;;;;;;;4997870;28;20060;-54
2022/03/11 11:04:12;;;;;;;1.85;1.08;;;;;;;;;;4998575;28;20917;-55
2022/03/11 11:06:38;;;;;;;2.10;1.23;;;;;;;;;;4996817;28;20042;-54
2022/03/11 11:09:05;;;;;;;2.05;1.00;;;;;;;;;;4996181;28;20339;-56
2022/03/11 11:11:32;;;;;;;3.05;1.25;;;;;;;;;;5003283;28;20100;-56
2022/03/11 11:14:07;;;;;;;5.40;2.58;;;;;;;;;;4998481;28;20041;-56
2022/03/11 11:16:40;;;;;;;1.80;0.75;;;;;;;;;;4997928;28;20069;-55
2022/03/11 11:19:12;;;;;;;1.50;0.93;;;;;;;;;;4994929;28;20041;-56
2022/03/11 11:21:48;;;;;;;2.08;1.15;;;;;;;;;;4996048;28;20061;-53
2022/03/11 11:24:23;;;;;;;3.60;2.03;;;;;;;;;;4997838;28;20041;-53
2022/03/11 11:26:50;;;;;;;0.57;0.47;;;;;;;;;;4995803;28;20909;-53
2022/03/11 11:29:22;;;;;;;2.58;1.25;;;;;;;;;;4997655;28;20704;-55
2022/03/11 11:31:48;;;;;;;2.45;1.50;;;;;;;;;;4998003;28;20053;-56
2022/03/11 11:34:24;;;;;;;5.05;2.38;;;;;;;;;;4998344;28;20077;-56
2022/03/11 11:36:51;;;;;;;2.60;1.52;;;;;;;;;;4997934;28;20041;-56
2022/03/11 11:39:17;;;;;;;1.67;0.95;;;;;;;;;;5000132;28;20046;-56
2022/03/11 11:41:51;;;;;;;2.25;1.20;;;;;;;;;;5010864;28;20068;-55
2022/03/11 11:44:17;;;;;;;3.63;1.55;;;;;;;;;;5005020;28;20060;-53
2022/03/11 11:47:02;;;;;;;1.73;1.23;;;;;;;;;;5005557;28;20037;-55
2022/03/11 11:49:39;;;;;;;5.22;1.50;;;;;;;;;;5020749;28;20038;-56
2022/03/11 11:52:11;;;;;;;2.13;1.23;;;;;;;;;;5006982;28;20065;-56
2022/03/11 11:54:39;;;;;;;2.35;1.40;;;;;;;;;;5005364;28;20419;-55
2022/03/11 11:57:05;;;;;;;1.00;0.60;;;;;;;;;;5009007;28;20042;-53
2022/03/11 11:59:35;;;;;;;2.60;1.60;;;;;;;;;;5007456;28;20124;-53
2022/03/11 12:02:22;;;;;;;2.45;1.25;;;;;;;;;;5007946;28;20135;-56
2022/03/11 12:04:48;;;;;;;2.92;1.33;;;;;;;;;;5006013;28;20104;-54
2022/03/11 12:07:18;;;;;;;3.38;1.98;;;;;;;;;;5010874;28;20049;-52
2022/03/11 12:09:57;;;;;;;3.20;1.80;;;;;;;;;;5003549;28;20038;-53
2022/03/11 12:12:32;;;;;;;2.08;1.08;;;;;;;;;;5000366;28;20061;-55
2022/03/11 12:15:04;;;;;;;3.20;1.70;;;;;;;;;;5032217;28;20427;-54
2022/03/11 12:17:36;;;;;;;0.98;0.70;;;;;;;;;;5002106;28;20395;-54
2022/03/11 12:20:20;;;;;;;2.38;1.38;;;;;;;;;;4998606;28;20123;-53
2022/03/11 12:22:54;;;;;;;8.98;2.60;;;;;;;;;;5032855;28;20062;-52
2022/03/11 12:25:21;;;;;;;1.55;1.00;;;;;;;;;;5007747;28;20092;-55
2022/03/11 12:28:00;;;;;;;7.78;2.38;;;;;;;;;;4998651;28;20046;-53
2022/03/11 12:30:30;;;;;;;4.97;1.80;;;;;;;;;;4992735;28;20038;-53
2022/03/11 12:32:59;;;;;;;5.32;2.90;;;;;;;;;;5007147;28;20061;-55
2022/03/11 12:35:25;;;;;;;3.83;1.95;;;;;;;;;;5012547;28;20057;-54
2022/03/11 12:37:51;;;;;;;3.15;1.85;;;;;;;;;;5014095;28;20052;-52
2022/03/11 12:40:21;;;;;;;2.08;1.05;;;;;;;;;;5006605;28;20731;-54
2022/03/11 12:42:47;;;;;;;2.30;1.25;;;;;;;;;;5011617;28;20073;-55
2022/03/11 12:45:14;;;;;;;1.73;1.00;;;;;;;;;;5000397;28;20508;-55
2022/03/11 12:47:40;;;;;;;2.75;1.48;;;;;;;;;;4997859;28;20041;-53
2022/03/11 12:50:08;;;;;;;1.98;0.93;;;;;;;;;;4997325;28;20135;-53
2022/03/11 12:52:38;;;;;;;3.42;1.60;;;;;;;;;;4996318;28;20053;-55
2022/03/11 12:55:23;;;;;;;0.68;0.55;;;;;;;;;;5001495;28;20069;-56
2022/03/11 12:57:50;;;;;;;1.90;1.00;;;;;;;;;;4999041;28;20061;-52
2022/03/11 13:00:23;;;;;;;1.20;0.55;;;;;;;;;;4999737;28;20096;-56
2022/03/11 13:02:49;;;;;;;2.35;1.50;;;;;;;;;;5000957;28;20061;-55
2022/03/11 13:05:22;;;;;;;1.85;1.08;;;;;;;;;;4998468;28;20106;-52
2022/03/11 13:07:48;;;;;;;2.70;0.88;;;;;;;;;;5000868;28;20046;-54
2022/03/11 13:10:16;;;;;;;2.08;1.33;;;;;;;;;;4998982;28;20145;-53
2022/03/11 13:12:41;;;;;;;3.67;1.48;;;;;;;;;;5003357;28;20050;-55
2022/03/11 13:15:11;;;;;;;3.05;1.40;;;;;;;;;;5001840;28;20051;-56
2022/03/11 13:17:44;;;;;;;2.13;0.95;;;;;;;;;;5001918;28;20045;-53
2022/03/11 13:20:28;;;;;;;1.38;0.88;;;;;;;;;;4998318;28;20046;-55
2022/03/11 13:22:55;;;;;;;1.95;1.10;;;;;;;;;;4995494;28;20213;-53
2022/03/11 13:25:28;;;;;;;0.38;0.38;;;;;;;;;;4995800;28;20515;-54
2022/03/11 13:27:54;;;;;;;0.80;0.68;;;;;;;;;;4999104;28;20111;-55
2022/03/11 13:30:32;;;;;;;1.77;0.80;;;;;;;;;;4999238;28;20046;-55
2022/03/11 13:33:08;;;;;;;1.80;1.13;;;;;;;;;;4997970;28;20081;-57
2022/03/11 13:35:34;;;;;;;5.00;1.17;;;;;;;;;;4999229;28;20084;-52
2022/03/11 13:38:00;;;;;;;2.70;1.23;;;;;;;;;;4997834;28;20987;-52
2022/03/11 13:40:26;;;;;;;1.77;0.95;;;;;;;;;;4998593;28;20093;-54
2022/03/11 13:43:00;;;;;;;1.05;0.65;;;;;;;;;;4999896;28;20987;-51
2022/03/11 13:45:27;;;;;;;1.15;0.75;;;;;;;;;;5007921;28;20519;-55
2022/03/11 13:48:07;;;;;;;0.38;0.32;;;;;;;;;;4996440;28;20046;-55
2022/03/11 13:50:34;;;;;;;0.68;0.40;;;;;;;;;;4998200;28;20096;-53
2022/03/11 13:53:00;;;;;;;1.13;0.57;;;;;;;;;;4998551;28;20563;-56
2022/03/11 13:55:34;;;;;;;2.17;1.10;;;;;;;;;;4998510;28;20033;-55
2022/03/11 13:58:16;;;;;;;7.53;1.35;;;;;;;;;;5001688;28;20044;-56
2022/03/11 14:00:42;;;;;;;3.75;0.90;;;;;;;;;;5008650;28;20401;-55
2022/03/11 14:03:18;;;;;;;1.17;0.68;;;;;;;;;;4998009;28;20404;-53
2022/03/11 14:05:46;;;;;;;2.58;0.98;;;;;;;;;;5005742;28;20057;-56
2022/03/11 14:08:14;;;;;;;0.52;0.43;;;;;;;;;;4998686;28;20132;-54
2022/03/11 14:10:41;;;;;;;4.00;1.33;;;;;;;;;;4997896;28;20049;-56
2022/03/11 14:13:08;;;;;;;0.68;0.55;;;;;;;;;;4997299;28;20454;-52
2022/03/11 14:15:38;;;;;;;3.65;1.27;;;;;;;;;;4994393;28;20070;-54
2022/03/11 14:18:05;;;;;;;2.30;1.10;;;;;;;;;;4998774;28;20420;-52
2022/03/11 14:20:31;;;;;;;2.35;1.17;;;;;;;;;;4996412;28;20285;-54
2022/03/11 14:22:57;;;;;;;5.20;1.77;;;;;;;;;;5000288;28;20058;-53
2022/03/11 14:25:23;;;;;;;1.23;0.90;;;;;;;;;;4996128;28;20038;-56
2022/03/11 14:27:49;;;;;;;1.20;0.70;;;;;;;;;;4997504;28;20049;-57
2022/03/11 14:30:15;;;;;;;1.60;0.90;;;;;;;;;;4997187;28;20042;-54
2022/03/11 14:32:41;;;;;;;1.38;0.95;;;;;;;;;;4995387;28;20108;-56
2022/03/11 14:35:07;;;;;;;2.65;1.33;;;;;;;;;;4998319;28;20030;-56
2022/03/11 14:37:35;;;;;;;2.03;1.10;;;;;;;;;;4996702;28;20042;-55
2022/03/11 14:40:01;;;;;;;0.70;0.50;;;;;;;;;;4997562;28;20400;-55
2022/03/11 14:42:27;;;;;;;1.50;0.80;;;;;;;;;;5027771;28;20153;-56
2022/03/11 14:44:53;;;;;;;1.02;0.60;;;;;;;;;;4996326;28;20060;-53